Raciborz, Poland
Current Conditions -  °F | °C
As of 5:30 PM on Friday 28 Nov 2014 (Local Time) from LKMT Reporting Station
Haze Haze  
Wind Chill: 28°   Ceiling: 3800
Heat Index: 34°   Visibility: 2.5mi
Dew Point: 28°   Wind: 7mph
Humidity: 81%   Direction: 40°NE
Pressure: 30.12"   Gusts: NA
Location:  50.09°N, 18.22°E
Report Text: LKMT 281530Z 04006KT 4000 BR SCT018 OVC038 01/M02 Q1020 NOSIG
Loading
Personal Weather Stations






























Interactive Weather Map New forecast layout! Learn more

10-Day Weather Forecast

Advertisements
Track Severe Weather on mobile